createdAt,value
2019-06-07T00:01:08.434Z,11.93
2019-06-07T00:03:37.363Z,11.78
2019-06-07T00:06:07.106Z,13.85
2019-06-07T00:08:36.766Z,11.68
2019-06-07T00:11:07.775Z,11.30
2019-06-07T00:13:36.651Z,13.35
2019-06-07T00:16:06.060Z,15.53
2019-06-07T00:18:35.348Z,16.67
2019-06-07T00:21:08.671Z,11.45
2019-06-07T00:23:34.858Z,19.27
2019-06-07T00:26:04.033Z,11.80
2019-06-07T00:28:33.309Z,13.18
2019-06-07T00:31:02.463Z,12.28
2019-06-07T00:33:31.384Z,12.28
2019-06-07T00:36:00.306Z,12.53
2019-06-07T00:38:29.348Z,20.65
2019-06-07T00:40:58.629Z,12.23
2019-06-07T00:43:28.606Z,13.65
2019-06-07T00:45:57.922Z,11.60
2019-06-07T00:48:32.369Z,12.18
2019-06-07T00:50:57.677Z,12.80
2019-06-07T00:53:31.742Z,15.43
2019-06-07T00:55:57.560Z,18.10
2019-06-07T00:58:27.889Z,19.00
2019-06-07T01:00:57.329Z,14.60
2019-06-07T01:03:26.848Z,14.95
2019-06-07T01:05:56.128Z,17.87
2019-06-07T01:08:29.618Z,21.23
2019-06-07T01:10:55.768Z,15.18
2019-06-07T01:13:26.929Z,17.37
2019-06-07T01:15:56.268Z,21.30
2019-06-07T01:18:37.818Z,18.73
2019-06-07T01:20:55.899Z,16.83
2019-06-07T01:24:01.413Z,14.80
2019-06-07T01:25:55.910Z,16.25
2019-06-07T01:28:27.098Z,21.82
2019-06-07T01:30:55.784Z,21.62
2019-06-07T01:33:31.873Z,20.12
2019-06-07T01:35:55.666Z,20.62
2019-06-07T01:38:26.747Z,23.02
2019-06-07T01:40:55.430Z,21.37
2019-06-07T01:43:27.030Z,16.62
2019-06-07T01:45:55.192Z,17.42
2019-06-07T01:48:27.761Z,16.82
2019-06-07T01:50:55.197Z,15.77
2019-06-07T01:53:25.907Z,15.25
2019-06-07T01:55:54.845Z,20.37
2019-06-07T01:58:26.480Z,17.40
2019-06-07T02:00:54.905Z,20.40
2019-06-07T02:03:26.965Z,21.23
2019-06-07T02:05:54.869Z,25.70
2019-06-07T02:08:26.519Z,18.52
2019-06-07T02:10:54.863Z,20.77
2019-06-07T02:13:27.416Z,23.65
2019-06-07T02:15:54.373Z,18.50
2019-06-07T02:18:27.720Z,28.57
2019-06-07T02:20:54.155Z,22.95
2019-06-07T02:23:27.537Z,22.15
2019-06-07T02:25:54.022Z,26.12
2019-06-07T02:28:29.887Z,27.27
2019-06-07T02:31:00.265Z,22.33
2019-06-07T02:33:28.361Z,25.37
2019-06-07T02:35:55.232Z,27.30
2019-06-07T02:38:29.399Z,29.82
2019-06-07T02:40:56.567Z,25.45
2019-06-07T02:43:28.257Z,29.15
2019-06-07T02:45:56.678Z,23.80
2019-06-07T02:48:28.022Z,31.12
2019-06-07T02:50:56.335Z,25.57
2019-06-07T02:53:27.065Z,27.45
2019-06-07T02:56:35.020Z,25.77
2019-06-07T02:58:31.100Z,18.60
2019-06-07T03:01:07.647Z,21.23
2019-06-07T03:03:30.625Z,32.80
2019-06-07T03:06:00.772Z,19.98
2019-06-07T03:08:35.462Z,34.05
2019-06-07T03:11:03.779Z,31.62
2019-06-07T03:13:40.810Z,25.25
2019-06-07T03:16:11.222Z,31.25
2019-06-07T03:19:02.034Z,21.75
2019-06-07T03:21:33.882Z,26.12
2019-06-07T03:24:04.049Z,28.02
2019-06-07T03:26:42.515Z,23.60
2019-06-07T03:29:05.467Z,28.73
2019-06-07T03:31:41.495Z,24.32
2019-06-07T03:34:07.874Z,25.35
2019-06-07T03:36:40.088Z,25.75
2019-06-07T03:39:08.863Z,33.20
2019-06-07T03:41:49.882Z,23.12
2019-06-07T03:44:10.396Z,20.80
2019-06-07T03:46:41.451Z,20.20
2019-06-07T03:49:11.722Z,21.90
2019-06-07T03:51:43.669Z,27.32
2019-06-07T03:54:13.807Z,23.57
2019-06-07T03:56:43.536Z,22.90
2019-06-07T03:59:13.331Z,24.27
2019-06-07T04:01:42.827Z,21.55
2019-06-07T04:04:13.198Z,26.57
2019-06-07T04:06:42.972Z,24.57
2019-06-07T04:09:12.723Z,22.15
2019-06-07T04:11:42.743Z,20.92
2019-06-07T04:14:12.259Z,23.22
2019-06-07T04:16:44.763Z,16.83
2019-06-07T04:21:43.150Z,16.27
2019-06-07T04:24:13.307Z,17.82
2019-06-07T04:26:46.723Z,17.82
2019-06-07T04:29:35.623Z,15.32
2019-06-07T04:31:46.670Z,13.70
2019-06-07T04:34:16.469Z,16.52
2019-06-07T04:36:58.823Z,13.58
2019-06-07T04:39:20.646Z,15.35
2019-06-07T04:41:52.469Z,14.40
2019-06-07T04:44:25.204Z,14.28
2019-06-07T04:46:57.144Z,14.50
2019-06-07T04:49:27.248Z,13.62
2019-06-07T04:51:57.723Z,14.33
2019-06-07T04:54:30.919Z,14.20
2019-06-07T04:56:59.532Z,10.45
2019-06-07T05:00:04.151Z,12.28
2019-06-07T05:02:02.529Z,15.50
2019-06-07T05:04:33.173Z,13.25
2019-06-07T05:07:03.869Z,8.50
2019-06-07T05:09:37.525Z,8.75
2019-06-07T05:12:05.177Z,7.83
2019-06-07T05:14:36.752Z,7.97
2019-06-07T05:17:07.701Z,8.48
2019-06-07T05:19:39.159Z,10.13
2019-06-07T05:22:08.874Z,10.03
2019-06-07T05:24:41.551Z,11.78
2019-06-07T05:27:09.988Z,7.40
2019-06-07T05:29:41.622Z,8.20
2019-06-07T05:34:43.290Z,5.95
2019-06-07T05:37:12.314Z,7.40
2019-06-07T05:39:46.078Z,9.43
2019-06-07T05:42:14.223Z,7.33
2019-06-07T05:44:45.710Z,5.53
2019-06-07T05:47:15.527Z,5.05
2019-06-07T05:49:47.200Z,6.80
2019-06-07T05:52:16.770Z,5.20
2019-06-07T05:54:47.107Z,5.75
2019-06-07T05:57:16.775Z,10.93
2019-06-07T05:59:47.624Z,6.20
2019-06-07T06:02:22.679Z,6.37
2019-06-07T06:04:49.481Z,5.12
2019-06-07T06:07:25.150Z,5.60
2019-06-07T06:09:55.265Z,4.17
2019-06-07T06:12:34.787Z,6.22
2019-06-07T06:14:56.371Z,4.95
2019-06-07T06:17:26.397Z,4.37
2019-06-07T06:19:56.301Z,7.28
2019-06-07T06:22:26.116Z,5.00
2019-06-07T06:28:03.534Z,6.50
2019-06-07T06:29:58.630Z,5.97
2019-06-07T06:32:54.382Z,5.85
2019-06-07T06:35:00.563Z,6.62
2019-06-07T06:37:30.391Z,5.53
2019-06-07T06:39:59.885Z,6.30
2019-06-07T06:42:29.484Z,9.25
2019-06-07T06:44:59.273Z,3.27
2019-06-07T06:47:29.135Z,5.40
2019-06-07T06:49:59.131Z,2.70
2019-06-07T06:52:28.652Z,5.67
2019-06-07T06:55:00.963Z,4.65
2019-06-07T06:57:29.729Z,3.30
2019-06-07T06:59:59.520Z,4.80
2019-06-07T07:02:29.515Z,3.30
2019-06-07T07:04:59.166Z,4.23
2019-06-07T07:07:29.303Z,4.60
2019-06-07T07:10:00.229Z,3.47
2019-06-07T07:12:30.221Z,3.30
2019-06-07T07:14:59.764Z,3.83
2019-06-07T07:17:47.747Z,4.65
2019-06-07T07:22:29.948Z,4.15
2019-06-07T07:24:59.646Z,5.60
2019-06-07T07:27:29.880Z,5.30
2019-06-07T07:30:34.836Z,3.80
2019-06-07T07:32:30.968Z,5.03
2019-06-07T07:35:00.923Z,3.98
2019-06-07T07:37:30.845Z,4.37
2019-06-07T07:40:21.303Z,3.00
2019-06-07T07:42:32.281Z,4.62
2019-06-07T07:45:01.932Z,4.37
2019-06-07T07:47:31.564Z,4.67
2019-06-07T07:50:01.218Z,7.62
2019-06-07T07:52:30.967Z,3.02
2019-06-07T07:55:00.662Z,4.72
2019-06-07T07:57:30.150Z,3.62
2019-06-07T08:00:25.671Z,6.97
2019-06-07T08:02:30.966Z,3.47
2019-06-07T08:05:21.912Z,5.28
2019-06-07T08:07:31.625Z,3.72
2019-06-07T08:10:03.796Z,4.92
2019-06-07T08:12:54.663Z,3.22
2019-06-07T08:15:03.917Z,3.85
2019-06-07T08:17:34.249Z,4.22
2019-06-07T08:20:03.873Z,4.42
2019-06-07T08:22:33.797Z,4.08
2019-06-07T08:25:04.515Z,5.28
2019-06-07T08:27:34.592Z,3.10
2019-06-07T08:30:46.352Z,2.83
2019-06-07T08:32:40.573Z,4.10
2019-06-07T08:35:11.923Z,5.83
2019-06-07T08:40:13.511Z,3.58
2019-06-07T08:43:03.131Z,4.00
2019-06-07T08:45:16.382Z,3.72
2019-06-07T08:50:15.408Z,3.98
2019-06-07T08:52:45.170Z,2.92
2019-06-07T08:55:15.168Z,6.05
2019-06-07T08:57:45.423Z,5.45
2019-06-07T09:00:42.982Z,3.80
2019-06-07T09:02:46.877Z,4.20
2019-06-07T09:05:18.298Z,3.45
2019-06-07T09:07:48.428Z,4.30
2019-06-07T09:10:18.659Z,3.55
2019-06-07T09:12:48.687Z,3.02
2019-06-07T09:15:23.621Z,4.37
2019-06-07T09:18:35.409Z,3.87
2019-06-07T09:20:36.543Z,6.80
2019-06-07T09:22:59.083Z,5.00
2019-06-07T09:25:24.836Z,4.90
2019-06-07T09:28:00.707Z,4.85
2019-06-07T09:30:44.128Z,3.00
2019-06-07T09:33:14.043Z,3.90
2019-06-07T09:35:44.128Z,6.05
2019-06-07T09:38:25.014Z,3.55
2019-06-07T09:40:45.441Z,3.55
2019-06-07T09:45:46.776Z,5.90
2019-06-07T09:48:47.620Z,2.33
2019-06-07T09:50:47.972Z,2.55
2019-06-07T09:53:22.393Z,2.83
2019-06-07T09:55:49.772Z,5.30
2019-06-07T10:03:22.342Z,2.65
2019-06-07T10:05:50.901Z,2.77
2019-06-07T10:09:26.142Z,5.17
2019-06-07T10:10:52.301Z,2.52
2019-06-07T10:13:22.208Z,4.62
2019-06-07T10:15:53.620Z,4.28
2019-06-07T10:18:23.293Z,7.45
2019-06-07T10:20:53.037Z,3.55
2019-06-07T10:23:22.916Z,5.45
2019-06-07T10:25:52.918Z,5.30
2019-06-07T10:28:22.332Z,5.20
2019-06-07T10:30:52.438Z,3.85
2019-06-07T10:33:22.201Z,3.77
2019-06-07T10:35:52.445Z,7.28
2019-06-07T10:38:21.842Z,2.50
2019-06-07T10:40:51.602Z,3.15
2019-06-07T10:43:21.251Z,4.00
2019-06-07T10:45:51.140Z,5.55
2019-06-07T10:48:24.271Z,4.58
2019-06-07T10:50:53.531Z,4.45
2019-06-07T10:53:23.306Z,3.72
2019-06-07T10:55:53.533Z,3.67
2019-06-07T10:58:23.660Z,2.90
2019-06-07T11:00:53.305Z,4.37
2019-06-07T11:03:22.938Z,3.17
2019-06-07T11:05:52.825Z,4.35
2019-06-07T11:08:22.705Z,5.65
2019-06-07T11:10:52.464Z,7.60
2019-06-07T11:13:22.232Z,2.33
2019-06-07T11:15:51.768Z,4.60
2019-06-07T11:18:20.916Z,3.00
2019-06-07T11:20:50.429Z,4.25
2019-06-07T11:23:21.906Z,3.55
2019-06-07T11:25:51.152Z,4.08
2019-06-07T11:28:20.824Z,4.40
2019-06-07T11:30:50.201Z,6.72
2019-06-07T11:33:20.323Z,2.20
2019-06-07T11:35:50.574Z,2.07
2019-06-07T11:38:20.101Z,1.65
2019-06-07T11:40:49.602Z,2.45
2019-06-07T11:43:19.632Z,3.77
2019-06-07T11:45:49.485Z,1.95
2019-06-07T11:48:19.024Z,5.28
2019-06-07T11:50:49.011Z,2.33
2019-06-07T11:53:20.024Z,5.80
2019-06-07T11:55:50.094Z,3.72
2019-06-07T11:58:21.919Z,2.72
2019-06-07T12:00:50.875Z,3.87
2019-06-07T12:03:20.753Z,4.80
2019-06-07T12:05:49.995Z,8.83
2019-06-07T12:08:19.502Z,5.20
2019-06-07T12:10:49.274Z,3.98
2019-06-07T12:13:19.139Z,4.78
2019-06-07T12:15:49.384Z,3.33
2019-06-07T12:18:19.780Z,4.03
2019-06-07T12:20:49.874Z,6.05
2019-06-07T12:23:20.274Z,2.98
2019-06-07T12:25:50.008Z,5.33
2019-06-07T12:28:20.912Z,2.20
2019-06-07T12:33:19.793Z,3.02
2019-06-07T12:35:49.882Z,4.30
2019-06-07T12:38:21.054Z,6.00
2019-06-07T12:40:57.570Z,4.50
2019-06-07T12:43:23.320Z,6.90
2019-06-07T12:45:53.019Z,4.87
2019-06-07T12:48:25.960Z,5.53
2019-06-07T12:50:54.811Z,4.55
2019-06-07T12:53:27.935Z,3.27
2019-06-07T12:55:55.934Z,3.65
2019-06-07T12:58:31.023Z,6.58
2019-06-07T13:00:59.683Z,2.12
2019-06-07T13:03:28.079Z,4.58
2019-06-07T13:05:57.956Z,5.08
2019-06-07T13:08:28.300Z,3.30
2019-06-07T13:11:14.082Z,3.20
2019-06-07T13:13:29.633Z,5.15
2019-06-07T13:15:59.428Z,3.85
2019-06-07T13:18:28.927Z,3.47
2019-06-07T13:20:58.339Z,3.12
2019-06-07T13:23:28.932Z,3.37
2019-06-07T13:25:58.959Z,5.35
2019-06-07T13:28:29.103Z,4.35
2019-06-07T13:30:58.857Z,3.05
2019-06-07T13:33:35.422Z,4.35
2019-06-07T13:35:59.163Z,9.08
2019-06-07T13:38:29.118Z,5.25
2019-06-07T13:40:59.049Z,9.68
2019-06-07T13:43:29.058Z,7.37
2019-06-07T13:45:59.443Z,6.37
2019-06-07T13:48:29.053Z,9.87
2019-06-07T13:50:58.846Z,5.53
2019-06-07T13:53:29.074Z,5.90
2019-06-07T13:55:58.336Z,3.37
2019-06-07T13:58:28.694Z,7.03
2019-06-07T14:00:58.221Z,5.27
2019-06-07T14:03:32.711Z,3.37
2019-06-07T14:05:58.734Z,1.05
2019-06-07T14:08:29.758Z,1.25
2019-06-07T14:10:59.456Z,5.55
2019-06-07T14:13:30.397Z,4.58
2019-06-07T14:16:00.149Z,3.92
2019-06-07T14:18:30.618Z,1.52
2019-06-07T14:21:00.275Z,1.55
2019-06-07T14:23:47.789Z,2.60
2019-06-07T14:26:01.136Z,3.27
2019-06-07T14:28:32.877Z,5.37
2019-06-07T14:31:02.332Z,3.42
2019-06-07T14:33:32.551Z,1.32
2019-06-07T14:36:03.372Z,6.80
2019-06-07T14:38:36.973Z,5.05
2019-06-07T14:41:04.484Z,1.45
2019-06-07T14:43:34.216Z,2.55
2019-06-07T14:46:03.782Z,2.15
2019-06-07T14:48:34.485Z,2.05
2019-06-07T14:51:03.924Z,4.67
2019-06-07T14:53:33.326Z,2.75
2019-06-07T14:56:03.326Z,2.62
2019-06-07T14:58:38.073Z,4.17
2019-06-07T15:01:04.412Z,2.17
2019-06-07T15:03:34.816Z,1.65
2019-06-07T15:06:04.640Z,4.05
2019-06-07T15:08:34.897Z,4.47
2019-06-07T15:11:04.508Z,1.95
2019-06-07T15:13:35.588Z,1.50
2019-06-07T15:16:05.711Z,2.15
2019-06-07T15:18:36.114Z,1.22
2019-06-07T15:21:06.202Z,1.80
2019-06-07T15:23:35.863Z,1.17
2019-06-07T15:26:05.117Z,2.37
2019-06-07T15:28:36.395Z,2.35
2019-06-07T15:31:06.330Z,1.22
2019-06-07T15:33:36.564Z,2.87
2019-06-07T15:36:06.443Z,1.75
2019-06-07T15:38:37.199Z,2.12
2019-06-07T15:41:07.648Z,1.20
2019-06-07T15:43:37.472Z,1.22
2019-06-07T15:46:07.195Z,1.30
2019-06-07T15:48:38.153Z,1.60
2019-06-07T15:51:08.271Z,0.95
2019-06-07T15:53:43.176Z,5.25
2019-06-07T15:56:10.321Z,20.37
2019-06-07T15:58:41.252Z,1.37
2019-06-07T16:01:11.140Z,2.87
2019-06-07T16:03:41.961Z,0.95
2019-06-07T16:06:11.412Z,1.95
2019-06-07T16:08:40.785Z,1.87
2019-06-07T16:11:10.669Z,1.35
2019-06-07T16:13:40.797Z,1.62
2019-06-07T16:16:10.970Z,1.60
2019-06-07T16:18:41.542Z,4.40
2019-06-07T16:21:11.200Z,3.50
2019-06-07T16:23:42.115Z,2.35
2019-06-07T16:26:12.120Z,1.67
2019-06-07T16:28:42.537Z,1.07
2019-06-07T16:31:12.002Z,2.42
2019-06-07T16:33:43.023Z,2.30
2019-06-07T16:36:12.756Z,1.32
2019-06-07T16:38:42.505Z,1.05
2019-06-07T16:41:12.267Z,1.90
2019-06-07T16:43:42.691Z,3.20
2019-06-07T16:46:12.612Z,2.37
2019-06-07T16:48:42.913Z,1.75
2019-06-07T16:51:12.617Z,1.47
2019-06-07T16:53:42.439Z,5.50
2019-06-07T16:56:11.912Z,1.85
2019-06-07T16:58:42.300Z,4.53
2019-06-07T17:01:12.380Z,1.05
2019-06-07T17:03:43.456Z,2.33
2019-06-07T17:06:13.724Z,1.70
2019-06-07T17:08:44.274Z,3.60
2019-06-07T17:11:14.066Z,2.70
2019-06-07T17:13:44.427Z,1.70
2019-06-07T17:16:14.087Z,1.72
2019-06-07T17:18:45.074Z,1.32
2019-06-07T17:21:14.932Z,2.20
2019-06-07T17:23:45.352Z,3.10
2019-06-07T17:26:15.409Z,1.98
2019-06-07T17:28:45.823Z,1.27
2019-06-07T17:31:15.411Z,2.60
2019-06-07T17:33:45.977Z,1.20
2019-06-07T17:36:16.505Z,3.13
2019-06-07T17:38:46.569Z,3.27
2019-06-07T17:41:16.010Z,1.98
2019-06-07T17:43:52.073Z,1.07
2019-06-07T17:46:17.360Z,1.87
2019-06-07T17:48:47.581Z,2.02
2019-06-07T17:51:17.342Z,1.82
2019-06-07T17:53:47.828Z,1.52
2019-06-07T17:56:17.339Z,1.55
2019-06-07T17:58:46.622Z,2.45
2019-06-07T18:01:16.049Z,2.83
2019-06-07T18:03:45.431Z,1.15
2019-06-07T18:06:16.504Z,3.52
2019-06-07T18:08:47.512Z,1.90
2019-06-07T18:11:17.019Z,2.12
2019-06-07T18:13:46.629Z,2.62
2019-06-07T18:16:16.750Z,3.42
2019-06-07T18:18:46.555Z,2.33
2019-06-07T18:21:16.155Z,3.90
2019-06-07T18:23:46.217Z,2.80
2019-06-07T18:26:15.947Z,1.90
2019-06-07T18:28:46.581Z,1.00
2019-06-07T18:31:15.929Z,4.53
2019-06-07T18:33:46.746Z,1.42
2019-06-07T18:36:16.901Z,1.70
2019-06-07T18:38:46.902Z,1.47
2019-06-07T18:41:16.446Z,1.15
2019-06-07T18:43:46.945Z,4.30
2019-06-07T18:46:16.439Z,2.07
2019-06-07T18:48:46.446Z,3.67
2019-06-07T18:51:16.077Z,2.27
2019-06-07T18:53:45.458Z,2.35
2019-06-07T18:56:15.000Z,1.62
2019-06-07T18:58:44.430Z,2.45
2019-06-07T19:01:13.930Z,3.10
2019-06-07T19:03:46.229Z,1.12
2019-06-07T19:06:14.057Z,1.50
2019-06-07T19:08:43.445Z,2.70
2019-06-07T19:11:13.550Z,1.17
2019-06-07T19:13:42.733Z,2.37
2019-06-07T19:16:12.008Z,1.98
2019-06-07T19:18:41.310Z,2.50
2019-06-07T19:21:10.831Z,2.77
2019-06-07T19:23:39.981Z,2.08
2019-06-07T19:26:09.364Z,1.70
2019-06-07T19:28:38.553Z,2.22
2019-06-07T19:31:08.289Z,4.78
2019-06-07T19:33:48.736Z,4.85
2019-06-07T19:36:08.549Z,3.70
2019-06-07T19:38:37.969Z,2.80
2019-06-07T19:41:19.379Z,1.40
2019-06-07T19:43:38.443Z,2.37
2019-06-07T19:46:07.811Z,3.08
2019-06-07T19:48:36.889Z,2.35
2019-06-07T19:51:06.139Z,5.03
2019-06-07T19:53:35.060Z,6.20
2019-06-07T19:56:04.229Z,4.10
2019-06-07T19:58:33.859Z,2.72
2019-06-07T20:01:04.608Z,5.17
2019-06-07T20:03:33.507Z,1.67
2019-06-07T20:06:02.667Z,2.22
2019-06-07T20:08:31.967Z,3.10
2019-06-07T20:11:01.108Z,4.72
2019-06-07T20:13:30.270Z,1.57
2019-06-07T20:15:59.195Z,3.40
2019-06-07T20:18:28.234Z,1.90
2019-06-07T20:20:58.445Z,1.05
2019-06-07T20:23:27.640Z,2.92
2019-06-07T20:25:56.566Z,2.17
2019-06-07T20:28:25.536Z,2.15
2019-06-07T20:30:54.537Z,2.00
2019-06-07T20:33:23.444Z,3.35
2019-06-07T20:35:52.490Z,2.35
2019-06-07T20:38:21.293Z,2.98
2019-06-07T20:40:50.212Z,1.85
2019-06-07T20:43:19.037Z,2.58
2019-06-07T20:45:47.936Z,3.05
2019-06-07T20:48:16.616Z,2.85
2019-06-07T20:50:45.420Z,3.55
2019-06-07T20:53:14.459Z,3.37
2019-06-07T20:55:43.140Z,3.25
2019-06-07T20:58:11.940Z,7.20
2019-06-07T21:00:40.866Z,3.30
2019-06-07T21:03:09.793Z,4.65
2019-06-07T21:05:38.710Z,1.80
2019-06-07T21:08:10.729Z,4.08
2019-06-07T21:10:38.113Z,3.05
2019-06-07T21:13:08.169Z,4.85
2019-06-07T21:15:48.526Z,5.17
2019-06-07T21:18:12.037Z,4.78
2019-06-07T21:20:38.356Z,3.55
2019-06-07T21:23:07.280Z,2.52
2019-06-07T21:25:36.210Z,5.45
2019-06-07T21:28:05.200Z,3.77
2019-06-07T21:30:34.283Z,5.42
2019-06-07T21:33:03.607Z,3.87
2019-06-07T21:35:32.608Z,5.22
2019-06-07T21:38:01.897Z,2.70
2019-06-07T21:40:30.932Z,3.87
2019-06-07T21:43:01.993Z,5.65
2019-06-07T21:45:32.876Z,2.70
2019-06-07T21:48:03.182Z,2.75
2019-06-07T21:50:32.020Z,3.83
2019-06-07T21:53:02.206Z,7.58
2019-06-07T21:55:31.301Z,4.87
2019-06-07T21:58:00.225Z,3.65
2019-06-07T22:00:49.792Z,3.33
2019-06-07T22:03:18.724Z,8.70
2019-06-07T22:05:49.380Z,7.20
2019-06-07T22:08:18.472Z,3.42
2019-06-07T22:10:47.294Z,3.33
2019-06-07T22:13:16.192Z,3.52
2019-06-07T22:15:44.992Z,2.83
2019-06-07T22:18:14.657Z,3.17
2019-06-07T22:20:43.556Z,1.92
2019-06-07T22:23:12.761Z,4.37
2019-06-07T22:25:41.522Z,2.75
2019-06-07T22:28:10.329Z,3.62
2019-06-07T22:30:39.244Z,4.05
2019-06-07T22:33:08.694Z,5.72
2019-06-07T22:35:37.692Z,2.92
2019-06-07T22:38:06.507Z,3.55
2019-06-07T22:40:35.413Z,2.55
2019-06-07T22:43:04.214Z,1.85
2019-06-07T22:45:32.897Z,4.92
2019-06-07T22:48:01.696Z,5.35
2019-06-07T22:50:30.619Z,2.47
2019-06-07T22:52:59.419Z,3.75
2019-06-07T22:55:28.461Z,3.70
2019-06-07T22:57:58.945Z,4.47
2019-06-07T23:00:29.917Z,2.75
2019-06-07T23:02:58.959Z,6.10
2019-06-07T23:05:27.992Z,6.25
2019-06-07T23:07:56.907Z,5.28
2019-06-07T23:10:25.834Z,7.00
2019-06-07T23:12:54.753Z,3.17
2019-06-07T23:15:23.795Z,9.30
2019-06-07T23:17:52.597Z,5.60
2019-06-07T23:20:21.637Z,5.28
2019-06-07T23:22:50.919Z,3.65
2019-06-07T23:25:22.965Z,6.83
2019-06-07T23:27:50.487Z,6.73
2019-06-07T23:30:21.440Z,5.05
2019-06-07T23:32:50.085Z,5.05
2019-06-07T23:35:19.141Z,3.27
2019-06-07T23:37:48.182Z,5.72
2019-06-07T23:40:17.414Z,4.20
2019-06-07T23:42:46.252Z,5.03
2019-06-07T23:45:15.653Z,3.85
2019-06-07T23:47:44.697Z,5.40
2019-06-07T23:50:13.786Z,5.33
2019-06-07T23:52:42.662Z,3.33
2019-06-07T23:55:13.840Z,3.62
2019-06-07T23:57:42.907Z,7.20
